Time;durP1;ratioP1;P1;durP2;ratioP2;P2;SDS_P1;SDS_P2;PMS_P1;PMS_P2;Temp;Humidity;BMP_temperature;BMP_pressure;BME280_temperature;BME280_humidity;BME280_pressure;Samples;Min_cycle;Max_cycle;Signal;HPM_P1;HPM_P2
2022/04/28 00:00:37;;;;;;;6.38;3.78;;;5.80;99.90;;;;;;5110268;28;20424;-50
2022/04/28 00:03:04;;;;;;;6.15;3.70;;;5.80;99.90;;;;;;5104617;28;20436;-50
2022/04/28 00:05:31;;;;;;;5.53;4.03;;;5.80;99.90;;;;;;5089314;28;20046;-50
2022/04/28 00:07:58;;;;;;;5.32;3.65;;;5.70;99.90;;;;;;5090546;28;20067;-51
2022/04/28 00:10:25;;;;;;;5.93;3.80;;;5.80;99.90;;;;;;5089869;28;20040;-51
2022/04/28 00:12:52;;;;;;;4.82;3.53;;;5.80;99.90;;;;;;5083827;28;20871;-51
2022/04/28 00:15:19;;;;;;;7.00;3.72;;;5.80;99.90;;;;;;5088892;28;20044;-50
2022/04/28 00:17:46;;;;;;;5.68;3.50;;;5.80;99.90;;;;;;5090479;28;20066;-51
2022/04/28 00:20:13;;;;;;;5.50;3.40;;;5.80;99.90;;;;;;5090210;28;20063;-52
2022/04/28 00:22:40;;;;;;;5.70;3.60;;;5.70;99.90;;;;;;5084460;28;20040;-53
2022/04/28 00:25:07;;;;;;;4.30;2.38;;;5.70;99.90;;;;;;5090197;28;20036;-49
2022/04/28 00:27:34;;;;;;;5.80;3.55;;;5.70;99.90;;;;;;5090447;28;20488;-50
2022/04/28 00:30:01;;;;;;;5.70;3.55;;;5.60;99.90;;;;;;5081901;28;20093;-50
2022/04/28 00:32:28;;;;;;;3.90;3.30;;;5.60;99.90;;;;;;5081808;28;20036;-51
2022/04/28 00:34:55;;;;;;;6.22;3.75;;;5.60;99.90;;;;;;5090302;28;20040;-50
2022/04/28 00:37:22;;;;;;;4.18;3.15;;;5.60;99.90;;;;;;5071827;28;20093;-51
2022/04/28 00:39:50;;;;;;;5.47;3.40;;;5.60;99.90;;;;;;5073775;28;20044;-49
2022/04/28 00:42:17;;;;;;;;;;;5.50;99.90;;;;;;5083259;28;20577;-50
2022/04/28 00:44:44;;;;;;;6.15;3.47;;;5.50;99.90;;;;;;5092626;28;19981;-51
2022/04/28 00:47:12;;;;;;;6.00;3.67;;;5.50;99.90;;;;;;5092167;28;20052;-50
2022/04/28 00:52:25;;;;;;;5.63;3.03;;;5.50;99.90;;;;;;5092799;28;20058;-50
2022/04/28 00:54:53;;;;;;;6.13;3.70;;;5.50;99.90;;;;;;5092648;28;20044;-49
2022/04/28 00:57:21;;;;;;;5.80;3.53;;;5.50;99.90;;;;;;5087221;28;20075;-50
2022/04/28 00:59:49;;;;;;;5.85;3.67;;;5.40;99.90;;;;;;5093261;28;20118;-52
2022/04/28 01:02:18;;;;;;;7.30;3.63;;;5.40;99.90;;;;;;5095594;28;20044;-51
2022/04/28 01:04:47;;;;;;;4.28;3.22;;;5.40;99.90;;;;;;5095559;28;20043;-52
2022/04/28 01:07:14;;;;;;;5.35;3.40;;;5.40;99.90;;;;;;5090580;28;20059;-53
2022/04/28 01:09:41;;;;;;;;;;;5.40;99.90;;;;;;5072382;28;20052;-52
2022/04/28 01:12:16;;;;;;;5.15;3.45;;;5.40;99.90;;;;;;5074255;28;19928;-49
2022/04/28 01:14:50;;;;;;;6.43;3.35;;;5.30;99.90;;;;;;5075358;28;20048;-49
2022/04/28 01:17:20;;;;;;;4.72;3.13;;;5.30;99.90;;;;;;5074905;28;20044;-50
2022/04/28 01:19:57;;;;;;;7.78;2.83;;;5.30;99.90;;;;;;5076127;28;20048;-49
2022/04/28 01:22:25;;;;;;;9.02;3.13;;;5.20;99.90;;;;;;5076204;28;20492;-51
2022/04/28 01:24:53;;;;;;;6.35;4.03;;;5.20;99.90;;;;;;5071770;28;20048;-52
2022/04/28 01:27:20;;;;;;;8.65;4.07;;;5.20;99.90;;;;;;5075858;28;20565;-50
2022/04/28 01:29:47;;;;;;;4.95;3.50;;;5.20;99.90;;;;;;5075504;28;20515;-50
2022/04/28 01:32:14;;;;;;;6.88;4.18;;;5.10;99.90;;;;;;5094430;28;20063;-50
2022/04/28 01:34:43;;;;;;;5.78;3.60;;;4.90;99.90;;;;;;5074918;28;20043;-52
2022/04/28 01:37:10;;;;;;;7.03;3.50;;;4.70;99.90;;;;;;5086523;28;20074;-49
2022/04/28 01:39:38;;;;;;;5.55;3.55;;;4.60;99.90;;;;;;5095869;28;20043;-51
2022/04/28 01:42:05;;;;;;;6.30;3.67;;;4.60;99.90;;;;;;5096275;28;20049;-50
2022/04/28 01:44:33;;;;;;;8.23;4.07;;;4.50;99.90;;;;;;5084754;28;20109;-49
2022/04/28 01:47:00;;;;;;;5.97;3.92;;;4.50;99.90;;;;;;5081363;28;20040;-53
2022/04/28 01:49:45;;;;;;;5.10;3.60;;;4.60;99.90;;;;;;5114182;28;20043;-49
2022/04/28 01:55:40;;;;;;;4.85;3.35;;;4.70;99.90;;;;;;5083138;28;20523;-50
2022/04/28 01:58:12;;;;;;;7.05;3.47;;;4.70;99.90;;;;;;5114704;28;20051;-49
2022/04/28 02:00:57;;;;;;;6.40;3.80;;;4.70;99.90;;;;;;5099014;28;20047;-50
2022/04/28 02:03:24;;;;;;;7.00;3.60;;;4.70;99.90;;;;;;5079650;28;20669;-51
2022/04/28 02:05:53;;;;;;;5.38;3.35;;;4.60;99.90;;;;;;5095647;28;20044;-50
2022/04/28 02:08:20;;;;;;;6.10;3.67;;;4.60;99.90;;;;;;5096130;28;20036;-50
2022/04/28 02:10:48;;;;;;;6.60;3.90;;;4.70;99.90;;;;;;5102497;28;20028;-51
2022/04/28 02:13:35;;;;;;;5.20;3.58;;;4.70;99.90;;;;;;5086371;28;20153;-49
2022/04/28 02:16:18;;;;;;;5.43;3.58;;;4.70;99.90;;;;;;5075273;28;20048;-50
2022/04/28 02:18:58;;;;;;;6.35;4.00;;;5.10;99.90;;;;;;5075566;28;20048;-50
2022/04/28 02:21:25;;;;;;;5.72;3.70;;;4.80;99.90;;;;;;5073618;28;20055;-50
2022/04/28 02:23:52;;;;;;;4.25;3.35;;;4.80;99.90;;;;;;5076381;28;20054;-50
2022/04/28 02:26:19;;;;;;;5.95;3.78;;;4.70;99.90;;;;;;5075253;28;20127;-51
2022/04/28 02:28:45;;;;;;;7.00;3.80;;;4.70;99.90;;;;;;5075176;28;20044;-50
2022/04/28 02:31:12;;;;;;;5.90;4.05;;;4.60;99.90;;;;;;5065681;28;20063;-52
2022/04/28 02:49:39;;;;;;;4.63;3.33;;;4.50;99.90;;;;;;5085968;28;20557;-49
2022/04/28 02:52:08;;;;;;;7.45;3.50;;;4.40;99.90;;;;;;5094809;28;20073;-50
2022/04/28 02:54:36;;;;;;;6.35;3.90;;;4.40;99.90;;;;;;5094936;28;20461;-51
2022/04/28 02:57:04;;;;;;;7.20;4.40;;;4.40;99.90;;;;;;5089346;28;20389;-51
2022/04/28 02:59:31;;;;;;;5.40;3.60;;;4.40;99.90;;;;;;5091118;28;20044;-50
2022/04/28 03:01:58;;;;;;;6.10;4.07;;;4.40;99.90;;;;;;5092017;28;20070;-49
2022/04/28 03:04:25;;;;;;;6.57;4.05;;;4.40;99.90;;;;;;5087581;28;20059;-50
2022/04/28 03:12:28;;;;;;;7.68;3.92;;;4.40;99.90;;;;;;5093046;28;20302;-56
2022/04/28 03:15:06;;;;;;;7.43;3.50;;;4.40;99.90;;;;;;5094590;27;20126;-56
2022/04/28 03:17:33;;;;;;;9.32;3.72;;;4.20;99.90;;;;;;5120207;27;20057;-56
2022/04/28 03:20:00;;;;;;;7.63;4.70;;;4.10;99.90;;;;;;5093646;27;20499;-56
2022/04/28 03:22:27;;;;;;;9.38;5.28;;;4.20;99.90;;;;;;5128023;27;20093;-55
2022/04/28 03:24:54;;;;;;;7.97;5.00;;;4.20;99.90;;;;;;5110326;27;20407;-56
2022/04/28 03:27:22;;;;;;;10.73;5.47;;;4.20;99.90;;;;;;5114678;27;20072;-57
2022/04/28 03:29:49;;;;;;;11.10;6.28;;;4.20;99.90;;;;;;5110130;27;20042;-56
2022/04/28 03:32:16;;;;;;;9.02;5.40;;;4.20;99.90;;;;;;5103910;28;20047;-56
2022/04/28 03:34:48;;;;;;;11.70;6.45;;;4.20;99.90;;;;;;5118883;27;20080;-55
2022/04/28 03:37:15;;;;;;;9.77;6.15;;;4.20;99.90;;;;;;5124259;27;20043;-56
2022/04/28 03:39:45;;;;;;;12.27;6.00;;;4.20;99.90;;;;;;5132903;27;20092;-56
2022/04/28 03:42:17;;;;;;;11.77;6.25;;;4.20;99.90;;;;;;5112460;27;20047;-56
2022/04/28 03:44:44;;;;;;;10.75;6.53;;;4.20;99.90;;;;;;5108379;27;20043;-56
2022/04/28 03:47:13;;;;;;;9.20;4.70;;;4.10;99.90;;;;;;5114238;27;20043;-56
2022/04/28 03:49:42;;;;;;;12.13;5.97;;;4.00;99.90;;;;;;5113090;27;20092;-57
2022/04/28 03:52:09;;;;;;;8.98;4.30;;;3.90;99.90;;;;;;5103412;28;20044;-54
2022/04/28 03:54:36;;;;;;;12.02;4.47;;;3.70;99.90;;;;;;5112761;27;20088;-56
2022/04/28 03:57:04;;;;;;;6.72;4.30;;;3.70;99.90;;;;;;5105655;27;20039;-55
2022/04/28 03:59:33;;;;;;;10.00;5.32;;;3.60;99.90;;;;;;5113812;27;20090;-54
2022/04/28 04:02:29;;;;;;;8.07;5.07;;;3.70;99.90;;;;;;5108821;27;20168;-54
2022/04/28 04:04:56;;;;;;;10.45;5.70;;;3.70;99.90;;;;;;5106591;28;20040;-56
2022/04/28 04:07:28;;;;;;;6.30;2.78;;;3.70;99.90;;;;;;5113595;27;20049;-57
2022/04/28 04:10:14;;;;;;;11.43;4.35;;;3.70;99.90;;;;;;5121562;27;20176;-55
2022/04/28 04:12:45;;;;;;;8.18;3.90;;;3.80;99.90;;;;;;5125995;27;20054;-54
2022/04/28 04:15:15;;;;;;;9.30;4.15;;;3.80;99.90;;;;;;5130195;27;20406;-54
2022/04/28 04:18:00;;;;;;;7.35;4.30;;;3.80;99.90;;;;;;5120238;27;20376;-56
2022/04/28 04:20:36;;;;;;;7.13;4.00;;;3.80;99.90;;;;;;5092886;28;20192;-55
2022/04/28 04:23:05;;;;;;;10.10;4.95;;;3.90;99.90;;;;;;5110541;28;20047;-55
2022/04/28 04:25:32;;;;;;;6.97;4.20;;;3.90;99.90;;;;;;5101487;27;20039;-56
2022/04/28 04:28:04;;;;;;;5.88;4.00;;;3.90;99.90;;;;;;5100973;28;20041;-56
2022/04/28 04:33:18;;;;;;;6.50;3.80;;;4.00;99.90;;;;;;5092740;28;20036;-57
2022/04/28 04:35:45;;;;;;;6.35;4.30;;;4.00;99.90;;;;;;5112663;27;20063;-56
2022/04/28 04:38:11;;;;;;;6.32;3.38;;;4.00;99.90;;;;;;5103628;28;20063;-57
2022/04/28 04:40:38;;;;;;;9.25;5.30;;;4.00;99.90;;;;;;5101262;28;20067;-55
2022/04/28 04:43:13;;;;;;;10.32;5.55;;;4.00;99.90;;;;;;5104847;28;20036;-57
2022/04/28 04:45:44;;;;;;;11.48;5.63;;;4.10;99.90;;;;;;5106925;28;20039;-55
2022/04/28 04:48:17;;;;;;;7.60;4.65;;;4.10;99.90;;;;;;5122595;28;20074;-55
2022/04/28 04:50:48;;;;;;;8.15;4.72;;;4.20;99.90;;;;;;5108764;28;20031;-56
2022/04/28 04:53:37;;;;;;;8.63;4.65;;;4.20;99.90;;;;;;5109196;28;20552;-57
2022/04/28 04:56:05;;;;;;;9.63;4.72;;;4.30;99.90;;;;;;5091225;28;20062;-56
2022/04/28 04:58:32;;;;;;;8.70;4.50;;;4.40;99.90;;;;;;5101994;28;20407;-57
2022/04/28 05:00:59;;;;;;;9.07;5.35;;;4.40;99.90;;;;;;5112027;28;20043;-55
2022/04/28 05:03:48;;;;;;;7.93;5.05;;;4.50;99.90;;;;;;5083579;28;20474;-55
2022/04/28 05:06:26;;;;;;;13.85;6.10;;;4.60;99.90;;;;;;5110677;28;20063;-57
2022/04/28 05:09:15;;;;;;;14.07;6.90;;;4.60;99.90;;;;;;5129920;28;20487;-56
2022/04/28 05:11:42;;;;;;;17.13;8.52;;;4.70;99.90;;;;;;5111611;28;20423;-57
2022/04/28 05:14:14;;;;;;;11.55;5.43;;;4.80;99.90;;;;;;5126568;27;20043;-57
2022/04/28 05:16:41;;;;;;;9.57;5.10;;;4.80;99.90;;;;;;5112006;28;20040;-57
2022/04/28 05:19:20;;;;;;;7.60;4.32;;;4.80;99.90;;;;;;5110930;28;20039;-56
2022/04/28 05:22:07;;;;;;;8.55;5.40;;;4.70;99.90;;;;;;5114431;28;20049;-57
2022/04/28 05:24:43;;;;;;;9.88;5.68;;;4.60;99.90;;;;;;5117326;27;20067;-56
2022/04/28 05:27:28;;;;;;;9.45;5.80;;;4.60;99.90;;;;;;5104679;27;20051;-57
2022/04/28 05:30:14;;;;;;;7.72;5.28;;;4.60;99.90;;;;;;5124406;27;20058;-54
2022/04/28 05:33:06;;;;;;;14.13;6.72;;;4.60;99.90;;;;;;5115470;27;20134;-53
2022/04/28 05:35:52;;;;;;;12.23;7.38;;;4.70;99.90;;;;;;5126343;27;20179;-55
2022/04/28 05:38:19;;;;;;;12.60;6.82;;;4.70;99.90;;;;;;5134680;27;20039;-56
2022/04/28 05:40:49;;;;;;;15.15;6.90;;;4.90;99.90;;;;;;5132106;27;20043;-56
2022/04/28 05:46:01;;;;;;;10.63;6.65;;;5.10;99.90;;;;;;5105790;27;20066;-56
2022/04/28 05:48:28;;;;;;;14.00;6.57;;;5.10;99.90;;;;;;5108297;27;20054;-57
2022/04/28 05:50:58;;;;;;;11.45;6.82;;;5.10;99.90;;;;;;5133582;27;20039;-58
2022/04/28 05:53:25;;;;;;;10.60;6.75;;;5.20;99.90;;;;;;5113894;27;20134;-58
2022/04/28 05:56:00;;;;;;;10.82;6.88;;;5.30;99.90;;;;;;5107048;27;20049;-58
2022/04/28 05:58:37;;;;;;;11.52;6.55;;;5.40;99.90;;;;;;5113130;28;20414;-56
2022/04/28 06:01:23;;;;;;;12.07;6.10;;;5.50;99.90;;;;;;5116762;27;20046;-57
2022/04/28 06:03:50;;;;;;;11.57;6.65;;;5.50;99.90;;;;;;5107723;27;20043;-58
2022/04/28 06:06:16;;;;;;;12.48;6.88;;;5.60;99.90;;;;;;5116107;27;20507;-57
2022/04/28 06:08:46;;;;;;;13.52;6.40;;;5.70;99.90;;;;;;5116353;27;20043;-57
2022/04/28 06:11:13;;;;;;;13.82;6.30;;;5.80;99.90;;;;;;5112203;27;20043;-56
2022/04/28 06:13:40;;;;;;;7.10;5.40;;;5.90;99.90;;;;;;5106501;28;20051;-58
2022/04/28 06:16:30;;;;;;;8.73;5.47;;;6.00;99.90;;;;;;5092057;27;20055;-56
2022/04/28 06:19:07;;;;;;;9.20;5.78;;;6.00;99.90;;;;;;5114649;27;20225;-56
2022/04/28 06:21:56;;;;;;;11.48;6.53;;;6.00;99.90;;;;;;5122202;27;20054;-57
2022/04/28 06:24:24;;;;;;;6.97;4.60;;;6.00;99.90;;;;;;5133849;27;20043;-57
2022/04/28 06:26:52;;;;;;;8.15;5.43;;;6.10;99.90;;;;;;5113076;27;20043;-57
2022/04/28 06:29:19;;;;;;;10.55;5.43;;;6.30;99.90;;;;;;5130755;27;20031;-57
2022/04/28 06:31:46;;;;;;;8.77;5.45;;;6.40;99.90;;;;;;5113974;27;20035;-58
2022/04/28 06:34:51;;;;;;;9.05;5.95;;;6.60;99.90;;;;;;5037754;28;20048;-57
2022/04/28 06:37:23;;;;;;;9.63;6.05;;;6.70;99.90;;;;;;5030522;28;20517;-57
2022/04/28 06:39:55;;;;;;;9.75;6.15;;;6.80;99.90;;;;;;5075347;27;20039;-58
2022/04/28 06:42:23;;;;;;;10.45;6.40;;;6.90;99.90;;;;;;5115251;27;20031;-57
2022/04/28 06:45:09;;;;;;;10.20;6.18;;;7.10;99.90;;;;;;5132273;27;20061;-57
2022/04/28 06:47:54;;;;;;;23.75;5.50;;;7.20;99.90;;;;;;5128950;27;20119;-57
2022/04/28 06:50:40;;;;;;;7.43;5.43;;;7.40;99.90;;;;;;5130578;27;20043;-57
2022/04/28 06:53:26;;;;;;;10.57;6.75;;;7.50;99.90;;;;;;5113653;28;20050;-57
2022/04/28 06:55:58;;;;;;;7.82;5.68;;;7.70;99.90;;;;;;5113129;27;20044;-56
2022/04/28 06:58:28;;;;;;;11.32;6.25;;;7.80;99.90;;;;;;5103275;28;20039;-55
2022/04/28 07:00:58;;;;;;;11.18;5.93;;;8.00;99.90;;;;;;5094474;28;20415;-58
2022/04/28 07:03:25;;;;;;;7.72;5.55;;;8.10;99.90;;;;;;5100724;27;20050;-58
2022/04/28 07:05:55;;;;;;;9.00;6.25;;;8.20;99.90;;;;;;5105772;27;20156;-58
2022/04/28 07:08:22;;;;;;;8.43;5.57;;;8.30;99.90;;;;;;5128690;27;20061;-57
2022/04/28 07:10:49;;;;;;;10.35;5.82;;;8.40;99.90;;;;;;5111721;27;20047;-57
2022/04/28 07:13:16;;;;;;;12.82;5.70;;;8.50;99.90;;;;;;5114676;27;20055;-57
2022/04/28 07:16:06;;;;;;;8.77;5.20;;;8.60;99.90;;;;;;5099460;27;20544;-57
2022/04/28 07:18:59;;;;;;;9.43;5.32;;;8.80;99.90;;;;;;5124670;27;20076;-58
2022/04/28 07:21:27;;;;;;;8.07;5.38;;;8.90;99.90;;;;;;5132786;27;20075;-57
2022/04/28 07:23:54;;;;;;;6.32;4.30;;;9.10;99.90;;;;;;5114933;27;20054;-57
2022/04/28 07:26:21;;;;;;;8.95;4.70;;;9.20;99.90;;;;;;5109548;27;20647;-57
2022/04/28 07:28:47;;;;;;;7.07;4.88;;;9.40;99.90;;;;;;5099952;28;20047;-57
2022/04/28 07:31:37;;;;;;;7.72;5.10;;;9.50;99.90;;;;;;5112237;28;20070;-56
2022/04/28 07:34:10;;;;;;;7.10;3.95;;;9.70;99.90;;;;;;5121160;27;20047;-57
2022/04/28 07:36:46;;;;;;;7.10;4.75;;;9.70;99.90;;;;;;5127407;27;20051;-57
2022/04/28 07:39:27;;;;;;;8.60;4.82;;;9.70;99.90;;;;;;5132784;27;20523;-58
2022/04/28 07:42:12;;;;;;;8.43;5.03;;;9.80;99.90;;;;;;5108994;27;20572;-57
2022/04/28 07:44:45;;;;;;;7.05;4.78;;;10.00;99.90;;;;;;5108722;27;20117;-56
2022/04/28 07:47:12;;;;;;;8.55;5.20;;;10.10;99.90;;;;;;5104449;28;20042;-56
2022/04/28 07:50:01;;;;;;;6.22;4.28;;;10.10;99.90;;;;;;5104035;28;20134;-55
2022/04/28 07:52:30;;;;;;;7.53;3.90;;;10.40;99.90;;;;;;5124048;27;20472;-56
2022/04/28 07:54:57;;;;;;;5.85;4.18;;;10.50;99.90;;;;;;5112835;27;20039;-56
2022/04/28 07:57:25;;;;;;;4.28;3.20;;;10.60;99.90;;;;;;5109064;27;20047;-57
2022/04/28 07:59:52;;;;;;;5.22;3.97;;;10.80;99.90;;;;;;5108795;27;20487;-57
2022/04/28 08:02:20;;;;;;;6.00;3.75;;;10.90;99.90;;;;;;5114414;27;20414;-57
2022/04/28 08:04:50;;;;;;;5.20;3.85;;;11.00;99.90;;;;;;5113846;27;20058;-56
2022/04/28 08:07:17;;;;;;;7.65;3.53;;;11.00;99.90;;;;;;5107645;27;20714;-56
2022/04/28 08:09:48;;;;;;;6.72;4.20;;;11.20;99.90;;;;;;5113578;28;20043;-57
2022/04/28 08:12:20;;;;;;;5.15;3.78;;;11.30;99.90;;;;;;5114142;28;20047;-57
2022/04/28 08:15:25;;;;;;;5.60;3.58;;;11.50;99.90;;;;;;5129500;27;20874;-57
2022/04/28 08:17:52;;;;;;;9.65;3.22;;;11.50;99.90;;;;;;5101769;28;20047;-56
2022/04/28 08:20:19;;;;;;;5.15;3.53;;;11.70;99.90;;;;;;5112587;27;20608;-56
2022/04/28 08:22:46;;;;;;;4.55;3.40;;;11.80;99.90;;;;;;5111291;27;20044;-56
2022/04/28 08:25:13;;;;;;;6.00;3.47;;;12.00;99.90;;;;;;5103199;28;20031;-56
2022/04/28 08:27:40;;;;;;;4.40;3.28;;;12.00;99.90;;;;;;5113952;28;20045;-57
2022/04/28 08:30:08;;;;;;;5.43;3.72;;;12.10;99.90;;;;;;5113431;28;20039;-57
2022/04/28 08:32:35;;;;;;;8.85;3.40;;;12.30;99.90;;;;;;5107870;28;20403;-57
2022/04/28 08:35:01;;;;;;;5.68;3.35;;;12.50;99.90;;;;;;5110576;28;20047;-58
2022/04/28 08:37:29;;;;;;;5.90;3.75;;;12.70;99.90;;;;;;5113791;28;20055;-57
2022/04/28 08:39:56;;;;;;;6.45;3.72;;;12.70;99.90;;;;;;5110753;28;20066;-57
2022/04/28 08:42:26;;;;;;;5.13;3.45;;;12.80;99.90;;;;;;5111493;28;20047;-56
2022/04/28 08:45:00;;;;;;;5.97;4.03;;;12.80;99.90;;;;;;5111658;28;20039;-58
2022/04/28 08:47:31;;;;;;;6.55;3.90;;;12.70;99.90;;;;;;5130229;28;20047;-57
2022/04/28 08:50:14;;;;;;;5.10;4.00;;;12.60;99.90;;;;;;5102752;28;20054;-58
2022/04/28 08:53:10;;;;;;;4.75;3.53;;;12.70;99.90;;;;;;5114635;27;20083;-56
2022/04/28 08:55:42;;;;;;;7.25;3.35;;;12.80;99.90;;;;;;5104563;28;20126;-57
2022/04/28 08:58:10;;;;;;;5.07;3.25;;;12.80;99.90;;;;;;5109688;28;20062;-56
2022/04/28 09:00:42;;;;;;;4.80;3.47;;;12.90;99.90;;;;;;5112167;28;20047;-57
2022/04/28 09:03:24;;;;;;;6.13;3.53;;;13.00;99.90;;;;;;5128170;27;20044;-58
2022/04/28 09:06:22;;;;;;;6.38;3.15;;;13.20;99.90;;;;;;5139601;22;20055;-54
2022/04/28 09:09:18;;;;;;;4.80;3.30;;;13.40;99.90;;;;;;5072986;28;20045;-51
2022/04/28 09:12:04;;;;;;;4.85;3.40;;;13.50;99.90;;;;;;5090895;28;20051;-51
2022/04/28 09:14:46;;;;;;;5.50;3.30;;;13.70;99.90;;;;;;5087919;28;20050;-53
2022/04/28 09:17:18;;;;;;;5.95;3.55;;;13.70;99.90;;;;;;5093476;28;20052;-54
2022/04/28 09:19:46;;;;;;;7.93;4.53;;;13.80;99.90;;;;;;5092522;28;20577;-53
2022/04/28 09:22:24;;;;;;;4.38;3.17;;;13.90;99.90;;;;;;5100702;28;20051;-52
2022/04/28 09:24:57;;;;;;;5.22;3.60;;;14.10;99.90;;;;;;5093508;28;20040;-52
2022/04/28 09:27:25;;;;;;;3.72;3.30;;;14.20;99.90;;;;;;5093289;28;20075;-51
2022/04/28 09:29:55;;;;;;;6.00;3.90;;;14.00;99.90;;;;;;5085636;28;20071;-53
2022/04/28 09:32:24;;;;;;;5.45;4.28;;;14.30;99.90;;;;;;5084777;28;20094;-51
2022/04/28 09:35:53;;;;;;;6.55;4.60;;;14.30;99.90;;;;;;5078951;28;20158;-54
2022/04/28 09:38:36;;;;;;;8.98;4.97;;;14.50;99.90;;;;;;5076234;28;20040;-53
2022/04/28 09:43:58;;;;;;;5.93;4.60;;;14.50;99.90;;;;;;5062761;28;20094;-52
2022/04/28 09:46:40;;;;;;;5.97;3.80;;;14.60;99.90;;;;;;5084681;28;20037;-52
2022/04/28 09:49:10;;;;;;;9.98;4.97;;;14.60;99.90;;;;;;5061308;28;20473;-53
2022/04/28 09:51:58;;;;;;;4.57;3.70;;;14.60;99.90;;;;;;5063823;28;20041;-52
2022/04/28 09:54:35;;;;;;;5.13;3.67;;;14.60;99.90;;;;;;5073879;28;20122;-54
2022/04/28 09:57:07;;;;;;;6.15;3.20;;;14.80;99.90;;;;;;5080902;28;20087;-55
2022/04/28 09:59:36;;;;;;;6.45;3.40;;;14.90;99.90;;;;;;5070142;28;20561;-55
2022/04/28 10:02:04;;;;;;;9.07;4.60;;;15.00;99.90;;;;;;5063906;28;20061;-52
2022/04/28 10:04:33;;;;;;;5.13;3.25;;;15.10;99.90;;;;;;5061196;28;20041;-54
2022/04/28 10:07:18;;;;;;;6.82;4.60;;;15.10;99.90;;;;;;5064108;28;20091;-51
2022/04/28 10:09:48;;;;;;;4.55;3.38;;;15.20;99.90;;;;;;5063575;28;20045;-52
2022/04/28 10:12:25;;;;;;;11.27;3.63;;;15.10;99.90;;;;;;5061824;28;20496;-51
2022/04/28 10:15:16;;;;;;;5.95;3.03;;;15.00;99.90;;;;;;5060470;28;20063;-51
2022/04/28 10:18:04;;;;;;;7.03;3.42;;;15.10;99.90;;;;;;5063779;28;20055;-55
2022/04/28 10:20:38;;;;;;;4.45;2.70;;;15.20;99.90;;;;;;5055289;28;20381;-53
2022/04/28 10:32:23;;;;;;;4.60;3.22;;;15.40;99.90;;;;;;5069153;28;20120;-53
2022/04/28 10:35:04;;;;;;;4.65;2.65;;;15.50;99.90;;;;;;5081010;28;20047;-51
2022/04/28 10:37:32;;;;;;;4.13;2.58;;;15.70;99.90;;;;;;5084214;28;20037;-52
2022/04/28 10:39:59;;;;;;;2.92;2.25;;;15.90;99.60;;;;;;5064509;28;20048;-53
2022/04/28 10:42:26;;;;;;;;;;;16.00;99.40;;;;;;5064601;28;20442;-51
2022/04/28 10:44:54;;;;;;;4.55;2.75;;;15.90;98.40;;;;;;5062206;28;20385;-56
2022/04/28 10:47:28;;;;;;;5.13;2.92;;;16.00;98.40;;;;;;5066565;28;20051;-54
2022/04/28 10:49:55;;;;;;;6.75;2.67;;;16.00;98.20;;;;;;5066994;28;20072;-52
2022/04/28 10:52:25;;;;;;;5.03;3.03;;;16.00;98.00;;;;;;5061795;28;20071;-54
2022/04/28 10:54:54;;;;;;;5.47;2.63;;;16.10;97.90;;;;;;5057746;28;20029;-54
2022/04/28 10:57:32;;;;;;;4.30;2.90;;;16.10;98.00;;;;;;5079825;28;20051;-52
2022/04/28 11:00:00;;;;;;;3.38;2.65;;;16.20;96.70;;;;;;5087641;28;20516;-49
2022/04/28 11:02:28;;;;;;;2.67;2.17;;;16.30;97.50;;;;;;5091741;28;20512;-52
2022/04/28 11:05:31;;;;;;;4.28;2.67;;;16.60;97.50;;;;;;5084399;28;20051;-53
2022/04/28 11:08:00;;;;;;;2.95;2.45;;;16.90;96.00;;;;;;5089038;28;20051;-53
2022/04/28 11:10:28;;;;;;;3.45;2.30;;;17.00;95.10;;;;;;5052043;28;20041;-49
2022/04/28 11:12:55;;;;;;;3.95;2.70;;;16.80;95.50;;;;;;5052767;28;20045;-53
2022/04/28 11:15:25;;;;;;;3.38;2.35;;;16.80;93.70;;;;;;5083251;28;20569;-53
2022/04/28 11:17:51;;;;;;;4.63;2.42;;;16.90;96.00;;;;;;5092375;28;20044;-52
2022/04/28 11:20:21;;;;;;;5.45;3.00;;;17.00;93.20;;;;;;5092051;28;20086;-52
2022/04/28 11:22:54;;;;;;;4.45;2.50;;;16.90;92.40;;;;;;5088780;28;20076;-52
2022/04/28 11:25:22;;;;;;;3.75;2.50;;;16.80;92.90;;;;;;5082387;28;20044;-55
2022/04/28 11:27:51;;;;;;;4.80;3.03;;;17.00;93.00;;;;;;5090695;28;20070;-52
2022/04/28 11:30:21;;;;;;;3.60;2.60;;;17.10;92.10;;;;;;5090649;28;20423;-52
2022/04/28 11:32:52;;;;;;;4.55;2.25;;;17.10;91.90;;;;;;5084914;28;20439;-55
2022/04/28 11:35:20;;;;;;;4.15;2.42;;;17.30;91.50;;;;;;5083700;28;20093;-53
2022/04/28 11:37:52;;;;;;;3.20;2.20;;;17.30;90.20;;;;;;5091872;28;20032;-55
2022/04/28 11:40:19;;;;;;;3.50;2.13;;;17.40;89.50;;;;;;5092189;28;20062;-53
2022/04/28 11:43:02;;;;;;;2.97;2.05;;;17.30;88.10;;;;;;5085764;28;20036;-53
2022/04/28 11:45:31;;;;;;;3.67;2.55;;;17.20;87.90;;;;;;5076185;28;20450;-53
2022/04/28 11:48:00;;;;;;;3.05;2.33;;;17.30;90.70;;;;;;5091938;28;20044;-52
2022/04/28 11:50:32;;;;;;;4.20;2.40;;;17.40;85.90;;;;;;5088344;28;20493;-53
2022/04/28 11:53:04;;;;;;;4.85;2.20;;;17.40;87.50;;;;;;5079911;28;20496;-52
2022/04/28 11:55:35;;;;;;;3.50;1.98;;;17.40;86.70;;;;;;5051781;28;20502;-54
2022/04/28 11:58:04;;;;;;;1.92;1.73;;;17.60;87.30;;;;;;5051918;28;20037;-55
2022/04/28 12:00:45;;;;;;;6.40;2.45;;;17.80;86.60;;;;;;5072253;28;20040;-56
2022/04/28 12:03:27;;;;;;;3.45;2.08;;;17.80;83.20;;;;;;5089515;28;20096;-54
2022/04/28 12:05:54;;;;;;;3.85;2.05;;;17.50;78.60;;;;;;5091343;28;20555;-54
2022/04/28 12:08:22;;;;;;;;;;;17.60;83.90;;;;;;5084630;28;20113;-55
2022/04/28 12:19:19;;;;;;;2.97;2.25;;;17.80;78.00;;;;;;5091249;28;20466;-56
2022/04/28 12:19:23;;;;;;;3.67;2.13;;;17.80;81.90;;;;;;5091613;28;20047;-56
2022/04/28 12:21:50;;;;;;;3.05;1.70;;;17.90;79.10;;;;;;5078439;28;20378;-54
2022/04/28 12:24:19;;;;;;;2.72;1.90;;;17.90;77.40;;;;;;5090003;28;20048;-53
2022/04/28 12:26:48;;;;;;;3.38;1.75;;;17.90;77.70;;;;;;5091243;28;20032;-56
2022/04/28 12:29:16;;;;;;;4.85;1.98;;;18.00;76.90;;;;;;5079713;28;20052;-53
2022/04/28 12:31:44;;;;;;;4.13;2.53;;;17.90;80.80;;;;;;5071317;28;20075;-55
2022/04/28 12:34:24;;;;;;;4.70;2.15;;;18.00;78.90;;;;;;5068156;28;20086;-55
2022/04/28 12:36:56;;;;;;;;;;;18.00;77.20;;;;;;5070940;28;20438;-55
2022/04/28 12:39:28;;;;;;;4.25;2.50;;;18.10;79.90;;;;;;5069734;28;20411;-51
2022/04/28 12:41:55;;;;;;;3.42;2.50;;;18.10;77.10;;;;;;5072033;28;20055;-54
2022/04/28 12:44:23;;;;;;;3.47;2.17;;;17.90;83.20;;;;;;5074694;28;20098;-53
2022/04/28 12:46:55;;;;;;;3.13;2.30;;;18.10;78.70;;;;;;5068980;28;20036;-55
2022/04/28 12:49:23;;;;;;;2.42;1.88;;;18.20;78.10;;;;;;5073767;28;21514;-54
2022/04/28 12:51:55;;;;;;;3.60;2.40;;;18.30;78.30;;;;;;5071678;28;20500;-54
2022/04/28 12:54:26;;;;;;;3.42;2.42;;;18.40;79.40;;;;;;5073121;28;20106;-51
2022/04/28 12:57:00;;;;;;;4.75;2.28;;;18.30;78.20;;;;;;5067334;28;20041;-52
2022/04/28 12:59:31;;;;;;;3.75;2.67;;;18.40;78.70;;;;;;5065984;28;20048;-56
2022/04/28 13:01:58;;;;;;;4.07;2.53;;;18.40;72.70;;;;;;5071262;28;20424;-52
2022/04/28 13:04:26;;;;;;;4.43;2.15;;;18.40;77.50;;;;;;5074108;28;20111;-54
2022/04/28 13:06:54;;;;;;;3.80;2.67;;;18.50;74.50;;;;;;5070503;28;20075;-51
2022/04/28 13:09:31;;;;;;;3.10;2.50;;;18.50;72.30;;;;;;5067330;28;20098;-51
2022/04/28 13:11:58;;;;;;;6.65;2.58;;;18.30;77.10;;;;;;5070317;28;20116;-55
2022/04/28 13:14:25;;;;;;;2.70;2.08;;;18.30;77.10;;;;;;5072295;28;20098;-52
2022/04/28 13:16:52;;;;;;;3.88;2.50;;;18.50;78.50;;;;;;5068682;28;20040;-52
2022/04/28 13:19:20;;;;;;;3.53;2.17;;;18.60;76.00;;;;;;5073921;28;20115;-55
2022/04/28 13:21:47;;;;;;;2.63;2.13;;;18.50;74.70;;;;;;5069075;28;20036;-53
2022/04/28 13:24:14;;;;;;;4.57;2.30;;;18.50;72.80;;;;;;5069991;28;20072;-56
2022/04/28 13:26:41;;;;;;;3.05;2.10;;;18.60;74.90;;;;;;5070010;28;20044;-51
2022/04/28 13:29:09;;;;;;;3.17;2.15;;;18.60;75.00;;;;;;5070272;28;20048;-55
2022/04/28 13:31:39;;;;;;;3.15;2.28;;;18.80;76.50;;;;;;5067968;28;20495;-53
2022/04/28 13:34:07;;;;;;;5.05;2.80;;;18.70;77.50;;;;;;5069310;28;20049;-53
2022/04/28 13:36:34;;;;;;;;;;;18.70;73.80;;;;;;5068228;28;20041;-56
2022/04/28 13:39:02;;;;;;;4.40;2.72;;;18.70;74.50;;;;;;5069639;28;20295;-52
2022/04/28 13:41:29;;;;;;;3.83;2.75;;;18.70;79.50;;;;;;5070700;28;20052;-55
2022/04/28 13:43:55;;;;;;;;;;;18.60;77.00;;;;;;5070152;28;20086;-55
2022/04/28 13:46:22;;;;;;;3.58;2.13;;;18.50;77.50;;;;;;5071186;28;19936;-52
2022/04/28 13:48:49;;;;;;;2.80;2.20;;;18.70;74.20;;;;;;5069377;28;20036;-53
2022/04/28 13:51:16;;;;;;;4.10;2.80;;;18.70;72.80;;;;;;5062604;28;20041;-52
2022/04/28 13:53:44;;;;;;;4.28;2.83;;;18.60;73.80;;;;;;5071622;28;20396;-55
2022/04/28 13:56:11;;;;;;;7.00;2.78;;;18.40;73.30;;;;;;5071464;28;20036;-53
2022/04/28 13:58:38;;;;;;;;;;;18.30;75.30;;;;;;5073202;28;20466;-54
2022/04/28 14:01:05;;;;;;;2.70;1.92;;;18.20;77.60;;;;;;5070811;28;19960;-52
2022/04/28 14:03:34;;;;;;;3.67;2.30;;;18.10;73.60;;;;;;5072737;28;20036;-56
2022/04/28 14:06:03;;;;;;;3.50;2.30;;;18.20;74.80;;;;;;5067287;28;20041;-53
2022/04/28 14:08:30;;;;;;;2.40;2.05;;;18.20;76.20;;;;;;5077897;28;20059;-51